Time;durP1;ratioP1;P1;durP2;ratioP2;P2;SDS_P1;SDS_P2;PMS_P1;PMS_P2;Temp;Humidity;BMP_temperature;BMP_pressure;BME280_temperature;BME280_humidity;BME280_pressure;Samples;Min_cycle;Max_cycle;Signal;HPM_P1;HPM_P2
2022/04/28 00:00:45;;;;;;;;;;;;;;;;;;5053917;28;19955;-50
2022/04/28 00:03:11;;;;;;;;;;;;;;;;;;5054187;28;19963;-50
2022/04/28 00:05:37;;;;;;;;;;;;;;;;;;5053904;28;19916;-49
2022/04/28 00:08:03;;;;;;;;;;;;;;;;;;5053775;28;19909;-49
2022/04/28 00:10:29;;;;;;;;;;;;;;;;;;5053816;28;20390;-51
2022/04/28 00:12:55;;;;;;;;;;;;;;;;;;5053695;28;19912;-50
2022/04/28 00:15:20;;;;;;;;;;;18.20;86.60;;;;;;5053695;28;19912;-49
2022/04/28 00:17:46;;;;;;;;;;;;;;;;;;5053772;28;19917;-50
2022/04/28 00:20:12;;;;;;;;;;;18.20;87.60;;;;;;5053518;28;19931;-50
2022/04/28 00:22:37;;;;;;;;;;;;;;;;;;5053514;28;20361;-49
2022/04/28 00:25:03;;;;;;;;;;;;;;;;;;5053539;28;19963;-50
2022/04/28 00:27:29;;;;;;;;;;;;;;;;;;5053392;28;19916;-49
2022/04/28 00:29:55;;;;;;;;;;;;;;;;;;5053361;28;19913;-48
2022/04/28 00:32:21;;;;;;;;;;;;;;;;;;5053421;28;19913;-49
2022/04/28 00:34:47;;;;;;;;;;;;;;;;;;5053387;28;19943;-50
2022/04/28 00:37:13;;;;;;;;;;;;;;;;;;5053172;28;19917;-50
2022/04/28 00:39:39;;;;;;;;;;;;;;;;;;5053202;28;19948;-48
2022/04/28 00:42:05;;;;;;;;;;;;;;;;;;5053165;28;20000;-49
2022/04/28 00:44:31;;;;;;;;;;;;;;;;;;5053232;28;20232;-49
2022/04/28 00:46:57;;;;;;;;;;;;;;;;;;5053062;28;19955;-50
2022/04/28 00:52:07;;;;;;;;;;;18.10;83.80;;;;;;5059424;28;20007;-49
2022/04/28 00:54:33;;;;;;;;;;;;;;;;;;5052965;28;19909;-49
2022/04/28 00:56:59;;;;;;;;;;;;;;;;;;5052857;28;20003;-51
2022/04/28 00:59:25;;;;;;;;;;;;;;;;;;5053150;28;19909;-48
2022/04/28 01:01:51;;;;;;;;;;;;;;;;;;5052961;28;20298;-49
2022/04/28 01:04:17;;;;;;;;;;;;;;;;;;5053097;28;19917;-49
2022/04/28 01:06:43;;;;;;;;;;;;;;;;;;5053011;28;20366;-50
2022/04/28 01:09:09;;;;;;;;;;;;;;;;;;5052698;28;20330;-49
2022/04/28 01:11:35;;;;;;;;;;;;;;;;;;5052686;28;19909;-49
2022/04/28 01:14:00;;;;;;;;;;;;;;;;;;5052699;28;19912;-50
2022/04/28 01:16:26;;;;;;;;;;;;;;;;;;5052629;28;20050;-49
2022/04/28 01:18:52;;;;;;;;;;;18.00;84.80;;;;;;5052608;28;19917;-49
2022/04/28 01:21:18;;;;;;;;;;;;;;;;;;5052639;28;19908;-49
2022/04/28 01:23:43;;;;;;;;;;;18.00;86.30;;;;;;5052569;28;20374;-49
2022/04/28 01:26:09;;;;;;;;;;;;;;;;;;5052475;28;19909;-50
2022/04/28 01:28:35;;;;;;;;;;;;;;;;;;5052494;28;19909;-51
2022/04/28 01:31:01;;;;;;;;;;;;;;;;;;5052675;28;20413;-49
2022/04/28 01:33:27;;;;;;;;;;;;;;;;;;5052372;28;19909;-49
2022/04/28 01:35:53;;;;;;;;;;;;;;;;;;5052387;28;19908;-51
2022/04/28 01:38:18;;;;;;;;;;;;;;;;;;5052366;28;19982;-50
2022/04/28 01:40:44;;;;;;;;;;;18.00;87.50;;;;;;5052414;28;20386;-48
2022/04/28 01:43:10;;;;;;;;;;;;;;;;;;5052597;28;19963;-49
2022/04/28 01:45:36;;;;;;;;;;;18.00;87.90;;;;;;5052522;28;19931;-48
2022/04/28 01:48:01;;;;;;;;;;;;;;;;;;5052287;28;19909;-49
2022/04/28 01:50:27;;;;;;;;;;;;;;;;;;5052192;28;19962;-49
2022/04/28 01:55:37;;;;;;;;;;;18.00;84.70;;;;;;5052273;28;19916;-49
2022/04/28 01:58:03;;;;;;;;;;;;;;;;;;5052233;28;19917;-59
2022/04/28 02:00:32;;;;;;;;;;;;;;;;;;5052115;28;19908;-59
2022/04/28 02:02:58;;;;;;;;;;;;;;;;;;5051867;28;19921;-58
2022/04/28 02:05:23;;;;;;;;;;;17.90;85.50;;;;;;5055457;28;19909;-59
2022/04/28 02:07:49;;;;;;;;;;;;;;;;;;5056139;28;19916;-59
2022/04/28 02:10:15;;;;;;;;;;;;;;;;;;5056339;28;19915;-59
2022/04/28 02:12:41;;;;;;;;;;;;;;;;;;5055947;28;20019;-59
2022/04/28 02:15:06;;;;;;;;;;;17.60;87.50;;;;;;5055989;28;19909;-59
2022/04/28 02:17:32;;;;;;;;;;;;;;;;;;5056118;28;19979;-58
2022/04/28 02:20:01;;;;;;;;;;;17.80;88.10;;;;;;5055906;28;20363;-58
2022/04/28 02:22:27;;;;;;;;;;;;;;;;;;5055822;28;19916;-58
2022/04/28 02:24:53;;;;;;;;;;;;;;;;;;5055790;28;19916;-58
2022/04/28 02:27:18;;;;;;;;;;;17.80;87.80;;;;;;5055740;28;19948;-58
2022/04/28 02:29:44;;;;;;;;;;;17.90;87.80;;;;;;5055684;28;19909;-58
2022/04/28 02:32:10;;;;;;;;;;;;;;;;;;5055723;28;19924;-58
2022/04/28 02:34:35;;;;;;;;;;;17.80;88.00;;;;;;5055714;28;19909;-58
2022/04/28 02:37:01;;;;;;;;;;;;;;;;;;5055551;28;19963;-58
2022/04/28 02:39:27;;;;;;;;;;;;;;;;;;5055549;28;19936;-58
2022/04/28 02:41:53;;;;;;;;;;;;;;;;;;5055463;28;20012;-58
2022/04/28 02:44:19;;;;;;;;;;;;;;;;;;5055519;28;19909;-58
2022/04/28 02:46:48;;;;;;;;;;;;;;;;;;5055675;28;20543;-58
2022/04/28 02:49:13;;;;;;;;;;;17.80;87.40;;;;;;5055629;28;19934;-58
2022/04/28 02:51:39;;;;;;;;;;;;;;;;;;5055473;28;19909;-58
2022/04/28 02:54:05;;;;;;;;;;;;;;;;;;5055252;28;19931;-49
2022/04/28 02:56:31;;;;;;;;;;;;;;;;;;5055161;28;19913;-49
2022/04/28 02:58:57;;;;;;;;;;;;;;;;;;5055151;28;19956;-49
2022/04/28 03:01:23;;;;;;;;;;;;;;;;;;5054953;28;19909;-50
2022/04/28 03:03:49;;;;;;;;;;;;;;;;;;5055116;28;19924;-49
2022/04/28 03:11:44;;;;;;;;;;;;;;;;;;5055034;28;19917;-49
2022/04/28 03:14:10;;;;;;;;;;;17.70;87.80;;;;;;5054579;28;19909;-49
2022/04/28 03:16:36;;;;;;;;;;;17.70;88.10;;;;;;5054541;28;19909;-49
2022/04/28 03:19:02;;;;;;;;;;;;;;;;;;5054756;28;19917;-48
2022/04/28 03:21:27;;;;;;;;;;;17.70;87.50;;;;;;5054818;28;19909;-49
2022/04/28 03:23:53;;;;;;;;;;;;;;;;;;5054750;28;19916;-50
2022/04/28 03:26:19;;;;;;;;;;;;;;;;;;5054728;28;19958;-48
2022/04/28 03:28:45;;;;;;;;;;;;;;;;;;5053338;28;19908;-48
2022/04/28 03:31:11;;;;;;;;;;;;;;;;;;5054690;28;20000;-48
2022/04/28 03:33:36;;;;;;;;;;;17.70;88.30;;;;;;5054818;28;19908;-50
2022/04/28 03:36:50;;;;;;;;;;;17.60;88.40;;;;;;5054457;28;19909;-50
2022/04/28 03:38:48;;;;;;;;;;;;;;;;;;5054222;28;19924;-49
2022/04/28 03:41:13;;;;;;;;;;;17.70;88.30;;;;;;5054408;28;19909;-49
2022/04/28 03:43:39;;;;;;;;;;;;;;;;;;5054314;28;20210;-50
2022/04/28 03:46:05;;;;;;;;;;;;;;;;;;5054343;28;19909;-49
2022/04/28 03:48:31;;;;;;;;;;;;;;;;;;5054367;28;19920;-49
2022/04/28 03:50:57;;;;;;;;;;;;;;;;;;5054146;28;20402;-49
2022/04/28 03:53:23;;;;;;;;;;;;;;;;;;5054189;28;19959;-49
2022/04/28 03:55:48;;;;;;;;;;;17.50;88.20;;;;;;5054107;28;19915;-49
2022/04/28 03:58:14;;;;;;;;;;;17.50;85.70;;;;;;5054015;28;19921;-49
2022/04/28 04:00:41;;;;;;;;;;;;;;;;;;5054025;28;20347;-48
2022/04/28 04:03:07;;;;;;;;;;;17.50;88.30;;;;;;5054224;28;19927;-50
2022/04/28 04:05:33;;;;;;;;;;;;;;;;;;5054083;28;19908;-50
2022/04/28 04:07:58;;;;;;;;;;;17.50;88.50;;;;;;5053825;28;19909;-50
2022/04/28 04:10:24;;;;;;;;;;;17.50;88.40;;;;;;5053821;28;19909;-51
2022/04/28 04:12:50;;;;;;;;;;;;;;;;;;5053702;28;19909;-48
2022/04/28 04:15:15;;;;;;;;;;;;;;;;;;5053922;28;20004;-49
2022/04/28 04:17:41;;;;;;;;;;;;;;;;;;5053857;28;19917;-49
2022/04/28 04:20:07;;;;;;;;;;;;;;;;;;5053529;28;19913;-48
2022/04/28 04:22:33;;;;;;;;;;;;;;;;;;5053534;28;20026;-49
2022/04/28 04:24:59;;;;;;;;;;;;;;;;;;5053559;28;19908;-50
2022/04/28 04:27:25;;;;;;;;;;;;;;;;;;5052517;28;19915;-49
2022/04/28 04:29:51;;;;;;;;;;;;;;;;;;5053370;28;19999;-48
2022/04/28 04:32:17;;;;;;;;;;;;;;;;;;5053306;28;19915;-50
2022/04/28 04:34:43;;;;;;;;;;;;;;;;;;5053289;28;19967;-49
2022/04/28 04:37:09;;;;;;;;;;;;;;;;;;5053105;28;19966;-49
2022/04/28 04:39:34;;;;;;;;;;;;;;;;;;5053163;28;19917;-49
2022/04/28 04:42:00;;;;;;;;;;;17.50;85.70;;;;;;5053190;28;19913;-51
2022/04/28 04:44:25;;;;;;;;;;;17.30;88.00;;;;;;5053224;28;19954;-59
2022/04/28 04:46:51;;;;;;;;;;;;;;;;;;5053112;28;20363;-59
2022/04/28 04:49:17;;;;;;;;;;;;;;;;;;5053126;28;19954;-59
2022/04/28 04:51:43;;;;;;;;;;;;;;;;;;5053067;28;20043;-58
2022/04/28 04:54:09;;;;;;;;;;;;;;;;;;5052962;28;20023;-59
2022/04/28 04:56:36;;;;;;;;;;;;;;;;;;5051604;28;19915;-59
2022/04/28 04:59:02;;;;;;;;;;;17.30;86.70;;;;;;5052799;28;19925;-58
2022/04/28 05:01:27;;;;;;;;;;;17.40;84.70;;;;;;5052772;28;19908;-59
2022/04/28 05:03:53;;;;;;;;;;;;;;;;;;5052869;28;20366;-59
2022/04/28 05:06:19;;;;;;;;;;;;;;;;;;5052721;28;19909;-58
2022/04/28 05:08:45;;;;;;;;;;;;;;;;;;5052780;28;19967;-58
2022/04/28 05:11:11;;;;;;;;;;;;;;;;;;5052935;28;19944;-58
2022/04/28 05:13:36;;;;;;;;;;;17.30;88.30;;;;;;5052667;28;19916;-58
2022/04/28 05:16:02;;;;;;;;;;;;;;;;;;5052665;28;20011;-58
2022/04/28 05:18:28;;;;;;;;;;;17.30;88.60;;;;;;5052611;28;19924;-57
2022/04/28 05:20:53;;;;;;;;;;;17.50;85.40;;;;;;5052730;28;20496;-49
2022/04/28 05:23:20;;;;;;;;;;;;;;;;;;5052592;28;19924;-49
2022/04/28 05:25:46;;;;;;;;;;;17.50;88.60;;;;;;5052629;28;19909;-50
2022/04/28 05:28:11;;;;;;;;;;;17.60;85.20;;;;;;5052506;28;19916;-52
2022/04/28 05:30:37;;;;;;;;;;;;;;;;;;5052538;28;19951;-51
2022/04/28 05:33:03;;;;;;;;;;;;;;;;;;5052362;28;19940;-51
2022/04/28 05:35:29;;;;;;;;;;;;;;;;;;5052465;28;20159;-53
2022/04/28 05:37:55;;;;;;;;;;;;;;;;;;5052178;28;19917;-51
2022/04/28 05:40:20;;;;;;;;;;;;;;;;;;5052284;28;20008;-51
2022/04/28 05:45:43;;;;;;;;;;;;;;;;;;5052387;28;19920;-51
2022/04/28 05:48:09;;;;;;;;;;;;;;;;;;5052268;28;20400;-51
2022/04/28 05:50:35;;;;;;;;;;;;;;;;;;5052483;28;19909;-51
2022/04/28 05:53:01;;;;;;;;;;;;;;;;;;5052188;28;19913;-52
2022/04/28 05:55:27;;;;;;;;;;;;;;;;;;5052266;28;19909;-51
2022/04/28 05:57:53;;;;;;;;;;;;;;;;;;5052479;28;20151;-50
2022/04/28 06:00:19;;;;;;;;;;;;;;;;;;5052116;28;20582;-54
2022/04/28 06:02:44;;;;;;;;;;;17.60;88.40;;;;;;5051988;28;20108;-54
2022/04/28 06:05:10;;;;;;;;;;;17.60;84.40;;;;;;5052326;28;20335;-52
2022/04/28 06:07:36;;;;;;;;;;;;;;;;;;5051847;28;19951;-49
2022/04/28 06:10:01;;;;;;;;;;;;;;;;;;5052126;28;19916;-50
2022/04/28 06:12:28;;;;;;;;;;;;;;;;;;5051825;28;19909;-50
2022/04/28 06:14:54;;;;;;;;;;;17.60;89.90;;;;;;5052026;28;19909;-50
2022/04/28 06:17:20;;;;;;;;;;;17.70;89.70;;;;;;5051926;28;19916;-48
2022/04/28 06:19:45;;;;;;;;;;;17.90;89.50;;;;;;5051822;28;19909;-50
2022/04/28 06:22:11;;;;;;;;;;;;;;;;;;5051975;28;19909;-49
2022/04/28 06:24:37;;;;;;;;;;;;;;;;;;5052121;28;19916;-51
2022/04/28 06:27:03;;;;;;;;;;;;;;;;;;5052129;28;19948;-49
2022/04/28 06:29:29;;;;;;;;;;;;;;;;;;5052111;28;19909;-51
2022/04/28 06:31:55;;;;;;;;;;;;;;;;;;5051915;28;20355;-49
2022/04/28 06:34:21;;;;;;;;;;;;;;;;;;5052153;28;19919;-50
2022/04/28 06:36:47;;;;;;;;;;;;;;;;;;5051809;28;19909;-50
2022/04/28 06:39:13;;;;;;;;;;;;;;;;;;5052013;28;19917;-51
2022/04/28 06:41:39;;;;;;;;;;;;;;;;;;5051699;28;19999;-50
2022/04/28 06:44:04;;;;;;;;;;;17.90;86.90;;;;;;5051712;28;19909;-50
2022/04/28 06:46:30;;;;;;;;;;;17.90;88.40;;;;;;5051696;28;19955;-50
2022/04/28 06:48:56;;;;;;;;;;;;;;;;;;5051757;28;19916;-50
2022/04/28 06:51:22;;;;;;;;;;;;;;;;;;5054721;28;19909;-50
2022/04/28 06:53:47;;;;;;;;;;;;;;;;;;5055238;28;20429;-51
2022/04/28 06:56:13;;;;;;;;;;;;;;;;;;5055160;28;19909;-50
2022/04/28 06:58:39;;;;;;;;;;;;;;;;;;5055279;28;19977;-51
2022/04/28 07:01:05;;;;;;;;;;;;;;;;;;5054940;28;20040;-51
2022/04/28 07:03:31;;;;;;;;;;;;;;;;;;5054752;28;19925;-48
2022/04/28 07:05:57;;;;;;;;;;;;;;;;;;5055223;28;19917;-49
2022/04/28 07:08:23;;;;;;;;;;;;;;;;;;5055200;28;19916;-48
2022/04/28 07:10:48;;;;;;;;;;;18.00;87.80;;;;;;5055168;28;19963;-48
2022/04/28 07:13:14;;;;;;;;;;;18.10;87.90;;;;;;5055115;28;19916;-48
2022/04/28 07:15:40;;;;;;;;;;;18.00;87.60;;;;;;5054917;28;19909;-48
2022/04/28 07:18:06;;;;;;;;;;;;;;;;;;5054869;28;20354;-49
2022/04/28 07:20:32;;;;;;;;;;;;;;;;;;5054870;28;19908;-48
2022/04/28 07:22:59;;;;;;;;;;;;;;;;;;5055167;28;19909;-49
2022/04/28 07:25:25;;;;;;;;;;;18.10;87.50;;;;;;5054880;28;19909;-49
2022/04/28 07:27:51;;;;;;;;;;;;;;;;;;5054796;28;19977;-49
2022/04/28 07:30:18;;;;;;;;;;;;;;;;;;5054793;28;19909;-57
2022/04/28 07:32:44;;;;;;;;;;;;;;;;;;5054708;28;19909;-57
2022/04/28 07:35:10;;;;;;;;;;;;;;;;;;5054912;28;20279;-56
2022/04/28 07:37:35;;;;;;;;;;;;;;;;;;5054521;28;20054;-57
2022/04/28 07:40:02;;;;;;;;;;;;;;;;;;5054820;28;19913;-55
2022/04/28 07:42:27;;;;;;;;;;;;;;;;;;5054799;28;20011;-56
2022/04/28 07:44:53;;;;;;;;;;;;;;;;;;5054628;28;19962;-56
2022/04/28 07:47:19;;;;;;;;;;;;;;;;;;5054476;28;19908;-55
2022/04/28 07:49:45;;;;;;;;;;;;;;;;;;5054288;28;19915;-57
2022/04/28 07:52:11;;;;;;;;;;;;;;;;;;5054334;28;19963;-55
2022/04/28 07:54:37;;;;;;;;;;;;;;;;;;5054660;28;19916;-54
2022/04/28 07:57:03;;;;;;;;;;;;;;;;;;5054181;28;19909;-57
2022/04/28 07:59:29;;;;;;;;;;;;;;;;;;5054162;28;19952;-56
2022/04/28 08:01:55;;;;;;;;;;;;;;;;;;5053995;28;19923;-57
2022/04/28 08:04:21;;;;;;;;;;;;;;;;;;5054263;28;19913;-56
2022/04/28 08:06:47;;;;;;;;;;;;;;;;;;5054111;28;19909;-57
2022/04/28 08:09:12;;;;;;;;;;;18.60;86.80;;;;;;5054021;28;20019;-57
2022/04/28 08:11:40;;;;;;;;;;;18.30;86.90;;;;;;5053969;28;19908;-57
2022/04/28 08:14:05;;;;;;;;;;;18.60;84.60;;;;;;5053957;28;20295;-57
2022/04/28 08:16:31;;;;;;;;;;;;;;;;;;5053931;28;19909;-57
2022/04/28 08:18:57;;;;;;;;;;;;;;;;;;5053817;28;19920;-56
2022/04/28 08:21:23;;;;;;;;;;;;;;;;;;5054283;28;19920;-56
2022/04/28 08:23:49;;;;;;;;;;;;;;;;;;5053797;28;19909;-56
2022/04/28 08:26:14;;;;;;;;;;;18.70;86.20;;;;;;5053701;28;20375;-57
2022/04/28 08:28:40;;;;;;;;;;;18.80;86.30;;;;;;5053634;28;19916;-57
2022/04/28 08:31:06;;;;;;;;;;;;;;;;;;5053500;28;19909;-56
2022/04/28 08:33:31;;;;;;;;;;;;;;;;;;5053416;28;20294;-56
2022/04/28 08:35:57;;;;;;;;;;;;;;;;;;5053375;28;19909;-57
2022/04/28 08:38:24;;;;;;;;;;;;;;;;;;5053425;28;20012;-57
2022/04/28 08:40:49;;;;;;;;;;;;;;;;;;5053526;28;19909;-55
2022/04/28 08:43:15;;;;;;;;;;;;;;;;;;5052145;28;19916;-55
2022/04/28 08:46:50;;;;;;;;;;;;;;;;;;5053283;28;19912;-56
2022/04/28 08:48:27;;;;;;;;;;;;;;;;;;5053123;28;19909;-57
2022/04/28 08:50:53;;;;;;;;;;;;;;;;;;5053300;28;19909;-57
2022/04/28 08:53:18;;;;;;;;;;;19.00;85.70;;;;;;5053491;28;19916;-56
2022/04/28 08:55:44;;;;;;;;;;;19.10;85.40;;;;;;5053307;28;19916;-56
2022/04/28 08:58:09;;;;;;;;;;;19.20;82.10;;;;;;5053004;28;19966;-56
2022/04/28 09:00:35;;;;;;;;;;;;;;;;;;5053157;28;19909;-57
2022/04/28 09:03:01;;;;;;;;;;;;;;;;;;5052785;28;19970;-57
2022/04/28 09:05:30;;;;;;;;;;;19.50;85.50;;;;;;5053077;28;19952;-57
2022/04/28 09:07:56;;;;;;;;;;;19.20;84.80;;;;;;5052904;28;19909;-56
2022/04/28 09:10:26;;;;;;;;;;;19.30;84.80;;;;;;5053165;28;19915;-56
2022/04/28 09:12:52;;;;;;;;;;;;;;;;;;5052557;28;19909;-57
2022/04/28 09:15:18;;;;;;;;;;;19.40;84.80;;;;;;5052765;28;19916;-56
2022/04/28 09:17:44;;;;;;;;;;;19.50;84.10;;;;;;5052831;28;20016;-57
2022/04/28 09:20:11;;;;;;;;;;;19.50;84.30;;;;;;5052796;28;19913;-57
2022/04/28 09:22:37;;;;;;;;;;;;;;;;;;5052727;28;19995;-57
2022/04/28 09:25:08;;;;;;;;;;;19.50;81.10;;;;;;5052626;28;19963;-57
2022/04/28 09:27:34;;;;;;;;;;;;;;;;;;5052680;28;20107;-57
2022/04/28 09:30:00;;;;;;;;;;;;;;;;;;5052597;28;20470;-57
2022/04/28 09:32:25;;;;;;;;;;;;;;;;;;5052585;28;19916;-57
2022/04/28 09:34:53;;;;;;;;;;;;;;;;;;5052627;28;19913;-58
2022/04/28 09:37:20;;;;;;;;;;;19.70;84.30;;;;;;5052597;28;19916;-57
2022/04/28 09:42:39;;;;;;;;;;;19.90;82.80;;;;;;5052562;28;19916;-57
2022/04/28 09:45:05;;;;;;;;;;;19.90;80.00;;;;;;5052513;28;19909;-56
2022/04/28 09:47:31;;;;;;;;;;;19.80;83.90;;;;;;5052418;28;20070;-57
2022/04/28 09:49:57;;;;;;;;;;;19.90;84.10;;;;;;5052458;28;20371;-57
2022/04/28 09:52:25;;;;;;;;;;;19.90;84.00;;;;;;5052423;28;20051;-57
2022/04/28 09:54:51;;;;;;;;;;;20.00;84.00;;;;;;5052588;28;20387;-57
2022/04/28 09:57:18;;;;;;;;;;;20.00;84.00;;;;;;5052386;28;20000;-57
2022/04/28 09:59:44;;;;;;;;;;;20.20;83.20;;;;;;5052685;28;19909;-57
2022/04/28 10:02:10;;;;;;;;;;;;;;;;;;5052070;28;19917;-57
2022/04/28 10:04:35;;;;;;;;;;;;;;;;;;5052341;28;19909;-57
2022/04/28 10:07:01;;;;;;;;;;;;;;;;;;5052286;28;19913;-58
2022/04/28 10:09:27;;;;;;;;;;;;;;;;;;5052219;28;19915;-57
2022/04/28 10:11:53;;;;;;;;;;;;;;;;;;5052213;28;20003;-57
2022/04/28 10:14:19;;;;;;;;;;;;;;;;;;5052616;28;20445;-57
2022/04/28 10:16:45;;;;;;;;;;;;;;;;;;5052244;28;20318;-58
2022/04/28 10:19:15;;;;;;;;;;;20.10;83.20;;;;;;5052108;28;19928;-58
2022/04/28 10:22:01;;;;;;;;;;;20.20;83.40;;;;;;5052417;28;19913;-58
2022/04/28 10:32:53;;;;;;;;;;;20.40;83.20;;;;;;5056069;28;19916;-51
2022/04/28 10:35:19;;;;;;;;;;;;;;;;;;5055913;28;19908;-48
2022/04/28 10:37:45;;;;;;;;;;;20.30;82.70;;;;;;5055692;28;19971;-49
2022/04/28 10:40:11;;;;;;;;;;;;;;;;;;5054798;28;19921;-50
2022/04/28 10:42:37;;;;;;;;;;;;;;;;;;5055671;28;20429;-50
2022/04/28 10:45:06;;;;;;;;;;;;;;;;;;5055694;28;19908;-48
2022/04/28 10:47:38;;;;;;;;;;;20.40;83.00;;;;;;5055722;28;19909;-48
2022/04/28 10:50:20;;;;;;;;;;;20.40;82.50;;;;;;5055781;28;19909;-49
2022/04/28 10:53:15;;;;;;;;;;;20.20;82.40;;;;;;5055614;28;19944;-57
2022/04/28 10:55:41;;;;;;;;;;;20.50;82.50;;;;;;5046572;28;19913;-57
2022/04/28 10:58:22;;;;;;;;;;;20.30;82.40;;;;;;5055361;28;19923;-57
2022/04/28 11:00:48;;;;;;;;;;;;;;;;;;5055354;28;19913;-57
2022/04/28 11:03:15;;;;;;;;;;;20.50;82.40;;;;;;5055206;28;19921;-57
2022/04/28 11:05:40;;;;;;;;;;;20.50;82.40;;;;;;5055230;28;20363;-58
2022/04/28 11:08:09;;;;;;;;;;;20.50;82.60;;;;;;5055287;28;19909;-57
2022/04/28 11:10:54;;;;;;;;;;;20.50;82.30;;;;;;5055324;28;19952;-57
2022/04/28 11:13:24;;;;;;;;;;;20.40;81.70;;;;;;5055085;28;19908;-56
2022/04/28 11:15:50;;;;;;;;;;;;;;;;;;5054964;28;19995;-57
2022/04/28 11:18:17;;;;;;;;;;;20.60;79.40;;;;;;5054962;28;20011;-57
2022/04/28 11:20:42;;;;;;;;;;;;;;;;;;5055168;28;20377;-57
2022/04/28 11:23:08;;;;;;;;;;;20.30;82.00;;;;;;5054921;28;19963;-57
2022/04/28 11:25:35;;;;;;;;;;;20.40;77.50;;;;;;5054839;28;19909;-57
2022/04/28 11:28:01;;;;;;;;;;;;;;;;;;5054946;28;20015;-58
2022/04/28 11:30:26;;;;;;;;;;;20.70;82.10;;;;;;5055049;28;19967;-58
2022/04/28 11:32:56;;;;;;;;;;;21.00;78.60;;;;;;5054968;28;19908;-58
2022/04/28 11:35:28;;;;;;;;;;;21.00;82.10;;;;;;5054220;28;19931;-57
2022/04/28 11:37:54;;;;;;;;;;;20.70;80.70;;;;;;5054613;28;19917;-57
2022/04/28 11:40:19;;;;;;;;;;;20.70;79.70;;;;;;5054591;28;19909;-57
2022/04/28 11:42:45;;;;;;;;;;;;;;;;;;5054594;28;19935;-58
2022/04/28 11:45:11;;;;;;;;;;;;;;;;;;5054275;28;19936;-57
2022/04/28 11:47:37;;;;;;;;;;;;;;;;;;5054655;28;19935;-57
2022/04/28 11:50:03;;;;;;;;;;;20.60;81.80;;;;;;5054347;28;20364;-57
2022/04/28 11:52:31;;;;;;;;;;;20.80;81.80;;;;;;5054436;28;19936;-57
2022/04/28 11:54:57;;;;;;;;;;;;;;;;;;5054135;28;19909;-57
2022/04/28 11:57:23;;;;;;;;;;;;;;;;;;5054201;28;19916;-57
2022/04/28 11:59:49;;;;;;;;;;;20.80;81.90;;;;;;5054455;28;20485;-57
2022/04/28 12:02:15;;;;;;;;;;;;;;;;;;5053998;28;19928;-57
2022/04/28 12:04:41;;;;;;;;;;;;;;;;;;5054229;28;20006;-58
2022/04/28 12:07:17;;;;;;;;;;;20.70;81.80;;;;;;5054370;28;19908;-57
2022/04/28 12:15:12;;;;;;;;;;;;;;;;;;5054039;28;19920;-57
2022/04/28 12:20:22;;;;;;;;;;;;;;;;;;5053890;28;20013;-57
2022/04/28 12:22:50;;;;;;;;;;;20.90;79.80;;;;;;5053745;28;19909;-57
2022/04/28 12:25:17;;;;;;;;;;;20.90;82.00;;;;;;5053840;28;19952;-57
2022/04/28 12:27:47;;;;;;;;;;;20.80;81.70;;;;;;5053779;28;19916;-57
2022/04/28 12:30:15;;;;;;;;;;;20.80;81.80;;;;;;5053716;28;20173;-57
2022/04/28 12:32:41;;;;;;;;;;;20.80;81.90;;;;;;5053683;28;20049;-57
2022/04/28 12:35:07;;;;;;;;;;;;;;;;;;5053574;28;19908;-57
2022/04/28 12:37:33;;;;;;;;;;;;;;;;;;5053409;28;20061;-57
2022/04/28 12:40:00;;;;;;;;;;;20.90;80.80;;;;;;5053235;28;20008;-56
2022/04/28 12:42:26;;;;;;;;;;;;;;;;;;5053536;28;19916;-57
2022/04/28 12:44:52;;;;;;;;;;;;;;;;;;5053400;28;19915;-57
2022/04/28 12:47:18;;;;;;;;;;;;;;;;;;5052563;28;20073;-56
2022/04/28 12:49:44;;;;;;;;;;;;;;;;;;5053282;28;19920;-57
2022/04/28 12:52:10;;;;;;;;;;;20.80;81.70;;;;;;5053550;28;19986;-57
2022/04/28 12:54:36;;;;;;;;;;;;;;;;;;5051897;28;20368;-57
2022/04/28 12:57:05;;;;;;;;;;;;;;;;;;5053012;28;19920;-57
2022/04/28 12:59:31;;;;;;;;;;;20.80;81.60;;;;;;5053215;28;20282;-57
2022/04/28 13:01:56;;;;;;;;;;;20.60;82.00;;;;;;5053136;28;19917;-57
2022/04/28 13:04:23;;;;;;;;;;;20.70;81.70;;;;;;5052978;28;19923;-58
2022/04/28 13:06:50;;;;;;;;;;;20.80;81.70;;;;;;5053019;28;19909;-57
2022/04/28 13:09:15;;;;;;;;;;;;;;;;;;5052941;28;19948;-57
2022/04/28 13:11:41;;;;;;;;;;;;;;;;;;5052937;28;19912;-57
2022/04/28 13:14:10;;;;;;;;;;;;;;;;;;5052881;28;20291;-57
2022/04/28 13:16:36;;;;;;;;;;;20.70;81.80;;;;;;5052902;28;20398;-57
2022/04/28 13:19:03;;;;;;;;;;;20.70;82.20;;;;;;5052725;28;19999;-56
2022/04/28 13:21:28;;;;;;;;;;;20.70;82.00;;;;;;5052769;28;20287;-57
2022/04/28 13:23:54;;;;;;;;;;;20.60;80.20;;;;;;5052801;28;19916;-57
2022/04/28 13:26:21;;;;;;;;;;;20.60;81.90;;;;;;5052698;28;19909;-56
2022/04/28 13:28:50;;;;;;;;;;;20.60;82.20;;;;;;5052913;28;19940;-57
2022/04/28 13:31:16;;;;;;;;;;;;;;;;;;5052872;28;20394;-57
2022/04/28 13:33:42;;;;;;;;;;;;;;;;;;5052577;28;19913;-54
2022/04/28 13:36:07;;;;;;;;;;;;;;;;;;5052574;28;20447;-55
2022/04/28 13:38:33;;;;;;;;;;;;;;;;;;5052802;28;19917;-50
2022/04/28 13:40:59;;;;;;;;;;;;;;;;;;5052338;28;19916;-49
2022/04/28 13:43:25;;;;;;;;;;;;;;;;;;5052329;28;20000;-49
2022/04/28 13:45:51;;;;;;;;;;;20.50;80.30;;;;;;5052377;28;19920;-47
2022/04/28 13:48:16;;;;;;;;;;;20.50;82.70;;;;;;5052519;28;20302;-48
2022/04/28 13:50:43;;;;;;;;;;;20.40;82.00;;;;;;5052325;28;20003;-50
2022/04/28 13:53:08;;;;;;;;;;;20.40;82.30;;;;;;5052524;28;19916;-49
2022/04/28 13:55:34;;;;;;;;;;;20.30;82.50;;;;;;5052374;28;19916;-48
2022/04/28 13:58:00;;;;;;;;;;;;;;;;;;5052133;28;20295;-48
2022/04/28 14:00:25;;;;;;;;;;;;;;;;;;5055631;28;19966;-49
2022/04/28 14:02:51;;;;;;;;;;;;;;;;;;5056073;28;19924;-48
2022/04/28 14:05:17;;;;;;;;;;;;;;;;;;5056196;28;19908;-47
2022/04/28 14:07:43;;;;;;;;;;;;;;;;;;5056099;28;19948;-49
2022/04/28 14:10:09;;;;;;;;;;;;;;;;;;5056094;28;19955;-49
2022/04/28 14:12:35;;;;;;;;;;;;;;;;;;5056206;28;19909;-48
2022/04/28 14:15:01;;;;;;;;;;;;;;;;;;5056111;28;19920;-48
2022/04/28 14:17:28;;;;;;;;;;;;;;;;;;5055889;28;19916;-49
2022/04/28 14:19:54;;;;;;;;;;;;;;;;;;5056432;28;19920;-48
2022/04/28 14:22:19;;;;;;;;;;;;;;;;;;5055972;28;19908;-48
2022/04/28 14:24:45;;;;;;;;;;;;;;;;;;5056014;28;20310;-49
2022/04/28 14:27:12;;;;;;;;;;;;;;;;;;5056010;28;19913;-49
2022/04/28 14:29:38;;;;;;;;;;;20.20;82.50;;;;;;5056246;28;19909;-48
2022/04/28 14:32:04;;;;;;;;;;;;;;;;;;5056016;28;19931;-48
2022/04/28 14:34:30;;;;;;;;;;;;;;;;;;5055585;28;19915;-48
2022/04/28 14:36:56;;;;;;;;;;;;;;;;;;5055607;28;19913;-49
2022/04/28 14:39:22;;;;;;;;;;;;;;;;;;5055461;28;20383;-49
2022/04/28 14:41:48;;;;;;;;;;;;;;;;;;5055644;28;20264;-49
2022/04/28 14:44:15;;;;;;;;;;;;;;;;;;5055647;28;19999;-49
2022/04/28 14:46:41;;;;;;;;;;;20.20;82.80;;;;;;5055567;28;19962;-49
2022/04/28 14:54:36;;;;;;;;;;;20.20;80.50;;;;;;5055463;28;19916;-48
2022/04/28 14:57:02;;;;;;;;;;;;;;;;;;5055452;28;19909;-49
2022/04/28 14:59:27;;;;;;;;;;;;;;;;;;5055296;28;19917;-49
2022/04/28 15:01:53;;;;;;;;;;;;;;;;;;5055132;28;19928;-49
2022/04/28 15:04:19;;;;;;;;;;;;;;;;;;5055282;28;20428;-48
2022/04/28 15:06:45;;;;;;;;;;;;;;;;;;5055729;28;20315;-49
2022/04/28 15:09:11;;;;;;;;;;;;;;;;;;5055534;28;19917;-49
2022/04/28 15:11:37;;;;;;;;;;;19.90;83.90;;;;;;5054348;28;20376;-51
2022/04/28 15:14:02;;;;;;;;;;;20.10;83.50;;;;;;5055129;28;19909;-50
2022/04/28 15:16:28;;;;;;;;;;;;;;;;;;5054994;28;20046;-49
2022/04/28 15:18:54;;;;;;;;;;;;;;;;;;5054880;28;19917;-50
2022/04/28 15:21:19;;;;;;;;;;;20.20;80.50;;;;;;5055021;28;19916;-49
2022/04/28 15:23:45;;;;;;;;;;;;;;;;;;5054924;28;19916;-48
2022/04/28 15:26:13;;;;;;;;;;;;;;;;;;5054940;28;19999;-50
2022/04/28 15:28:39;;;;;;;;;;;20.10;83.80;;;;;;5055172;28;19912;-50
2022/04/28 15:31:05;;;;;;;;;;;;;;;;;;5054800;28;19946;-50
2022/04/28 15:33:30;;;;;;;;;;;20.10;84.00;;;;;;5054720;28;19909;-50
2022/04/28 15:35:56;;;;;;;;;;;20.10;81.80;;;;;;5054769;28;19908;-51
2022/04/28 15:38:22;;;;;;;;;;;20.10;81.30;;;;;;5054880;28;19917;-50
2022/04/28 15:40:48;;;;;;;;;;;;;;;;;;5054546;28;19913;-51
2022/04/28 15:43:14;;;;;;;;;;;;;;;;;;5054819;28;20039;-49
2022/04/28 15:45:39;;;;;;;;;;;;;;;;;;5054531;28;19999;-50
2022/04/28 15:48:05;;;;;;;;;;;;;;;;;;5054460;28;20283;-49
2022/04/28 15:50:31;;;;;;;;;;;;;;;;;;5054457;28;19913;-50
2022/04/28 15:52:57;;;;;;;;;;;20.10;84.00;;;;;;5054461;28;20236;-51
2022/04/28 15:55:22;;;;;;;;;;;20.40;81.70;;;;;;5053193;28;19917;-50
2022/04/28 15:57:48;;;;;;;;;;;20.10;79.40;;;;;;5054251;28;19912;-50
2022/04/28 16:00:14;;;;;;;;;;;;;;;;;;5054360;28;19916;-51
2022/04/28 16:02:39;;;;;;;;;;;;;;;;;;5052655;28;19920;-49
2022/04/28 16:05:05;;;;;;;;;;;;;;;;;;5054283;28;19909;-49
2022/04/28 16:07:31;;;;;;;;;;;;;;;;;;5054149;28;20383;-50
2022/04/28 16:09:57;;;;;;;;;;;;;;;;;;5054358;28;19909;-50
2022/04/28 16:12:26;;;;;;;;;;;20.10;83.80;;;;;;5054017;28;20333;-49
2022/04/28 16:14:52;;;;;;;;;;;20.10;84.00;;;;;;5054211;28;20325;-50
2022/04/28 16:17:18;;;;;;;;;;;;;;;;;;5053952;28;19909;-49
2022/04/28 16:19:44;;;;;;;;;;;;;;;;;;5053791;28;19962;-51
2022/04/28 16:22:10;;;;;;;;;;;;;;;;;;5054320;28;19954;-51